METAR Data
IDs: Format: Raw Decoded Include TAF

Data at: 0024 UTC 26 Oct 2021

PAWD 252353Z AUTO 36010KT 10SM SCT070 OVC085 06/M01 A2900 RMK AO2 SLP821 T00611006 10061 20033 55003 TSNO
PAWD 252253Z AUTO 01009G18KT 10SM FEW080 OVC095 06/M01 A2900 RMK AO2 SLP819 T00561006 TSNO
PAWD 252153Z AUTO 02011G16KT 10SM OVC100 06/M01 A2900 RMK AO2 SLP820 T00561006 TSNO
PAWD 252053Z AUTO 36015G23KT 10SM BKN085 OVC110 05/M01 A2901 RMK AO2 SLP824 T00501006 57005 TSNO
PAWD 251953Z AUTO 36009G19KT 10SM BKN075 BKN095 OVC110 06/M01 A2902 RMK AO2 SLP826 T00561006 TSNO
PAWD 251853Z AUTO 02010KT 10SM BKN090 OVC110 04/M01 A2902 RMK AO2 SLP828 T00391006 TSNO
PAWD 251753Z AUTO 02010G19KT 10SM OVC090 04/M01 A2903 RMK AO2 SLP830 60000 T00391006 10050 20033 56008 TSNO
PAWD 251653Z AUTO 02011KT 10SM OVC090 03/M01 A2903 RMK AO2 SLP832 T00331006 TSNO
PAWD 251553Z AUTO 02013G23KT 10SM OVC080 04/M01 A2904 RMK AO2 SLP833 T00391006 TSNO
PAWD 251453Z AUTO 02010KT 10SM OVC085 04/00 A2905 RMK AO2 SLP838 60000 T00390000 56020 TSNO
PAWD 251353Z AUTO 02009G18KT 10SM BKN075 OVC090 04/00 A2906 RMK AO2 RAE05 SLP842 P0000 T00440000 TSNO
PAWD 251253Z AUTO 01010KT 10SM -RA BKN042 OVC070 04/01 A2909 RMK AO2 RAB29 SLP849 P0000 T00390011 TSNO
PAWD 251153Z AUTO 01007KT 10SM BKN055 OVC070 04/00 A2911 RMK AO2 SLP858 70002 T00440000 10056 20039 58017 TSNO
PAWD 251053Z AUTO 36009KT 10SM OVC065 04/00 A2913 RMK AO2 SLP866 T00390000 TSNO
PAWD 250953Z AUTO 02007KT 10SM OVC070 04/01 A2915 RMK AO2 SLP870 T00440006 TSNO
PAWD 250853Z AUTO 03010KT 10SM OVC080 04/01 A2916 RMK AO2 SLP874 T00440006 400890028 56022 TSNO
PAWD 250753Z AUTO 01008KT 10SM OVC075 05/01 A2918 RMK AO2 SLP880 T00500006 TSNO
PAWD 250653Z AUTO 01011KT 10SM BKN070 OVC090 06/01 A2919 RMK AO2 SLP885 T00560011 TSNO
PAWD 250553Z AUTO 02005KT 10SM OVC070 06/01 A2922 RMK AO2 SLP896 T00560011 10078 20056 58023 TSNO
PAWD 250453Z AUTO 02003KT 10SM OVC070 06/02 A2925 RMK AO2 SLP906 T00560017 TSNO
PAWD 250353Z AUTO 35006KT 10SM OVC070 06/02 A2928 RMK AO2 SLP914 T00560022 TSNO
PAWD 250253Z AUTO 01003KT 10SM OVC100 06/02 A2929 RMK AO2 SLP919 T00610022 58018 TSNO
PAWD 250153Z AUTO 02004KT 10SM FEW035 OVC110 07/03 A2931 RMK AO2 SLP927 T00670033 TSNO
PAWD 250053Z AUTO 00000KT 10SM FEW038 SCT075 07/04 A2933 RMK AO2 SLP934 T00720039 TSNO
PAWD 242353Z AUTO 16004KT 10SM FEW031 SCT060 08/04 A2935 RMK AO2 SLP937 60000 T00780039 10089 20033 58019 TSNO
PAWD 242253Z AUTO 19003KT 10SM CLR 08/04 A2937 RMK AO2 SLP945 T00780044 TSNO
PAWD 242153Z AUTO 02004KT 10SM SCT085 BKN110 08/03 A2938 RMK AO2 SLP950 T00830033 TSNO
PAWD 242053Z AUTO 04003KT 10SM SCT120 08/04 A2940 RMK AO2 SLP956 60000 T00780044 58012 TSNO
PAWD 241953Z AUTO 03003KT 10SM FEW033 SCT055 06/04 A2942 RMK AO2 SLP962 T00610039 TSNO
PAWD 241853Z AUTO 00000KT 10SM FEW007 BKN035 OVC042 04/03 A2943 RMK AO2 RAE04B26E45 SLP967 P0000 T00440033 TSNO
PAWD 241753Z AUTO 35003KT 10SM -RA OVC046 03/03 A2944 RMK AO2 RAB14 SLP968 P0000 60002 T00330028 10044 20028 51008 TSNO
PAWD 241653Z AUTO 34004KT 10SM OVC060 03/02 A2943 RMK AO2 RAB13E49 SLP967 P0001 T00280017 TSNO
PAWD 241553Z AUTO 00000KT 10SM FEW050 OVC060 03/03 A2942 RMK AO2 RAE37 SLP963 P0001 T00330028 TSNO
PAWD 241453Z AUTO 32003KT 10SM -RA OVC043 03/03 A2941 RMK AO2 RAB43 SLP960 P0000 60000 T00330028 53016 TSNO
PAWD 241353Z AUTO 01003KT 10SM BKN060 OVC080 03/02 A2939 RMK AO2 SLP953 T00280022 TSNO
PAWD 241253Z AUTO 00000KT 10SM BKN060 OVC080 04/03 A2938 RMK AO2 RAE1158 SLP948 P0000 T00390028 TSNO